sensor_id;sensor_type;location;lat;lon;timestamp;pressure;altitude;pressure_sealevel;temperature;humidity
20119;BME280;10220;42.716;23.306;2023-05-10T00:01:05;95489.38;;;9.52;100.00
20119;BME280;10220;42.716;23.306;2023-05-10T00:03:30;95477.81;;;9.48;100.00
20119;BME280;10220;42.716;23.306;2023-05-10T00:05:56;95450.25;;;9.34;100.00
20119;BME280;10220;42.716;23.306;2023-05-10T00:08:22;95489.41;;;9.58;100.00
20119;BME280;10220;42.716;23.306;2023-05-10T00:10:47;95495.19;;;9.60;100.00
20119;BME280;10220;42.716;23.306;2023-05-10T00:13:13;95484.09;;;9.39;100.00
20119;BME280;10220;42.716;23.306;2023-05-10T00:15:39;95486.59;;;9.26;100.00
20119;BME280;10220;42.716;23.306;2023-05-10T00:18:04;95482.63;;;9.30;100.00
20119;BME280;10220;42.716;23.306;2023-05-10T00:20:32;95482.16;;;9.20;100.00
20119;BME280;10220;42.716;23.306;2023-05-10T00:22:57;95473.19;;;9.16;100.00
20119;BME280;10220;42.716;23.306;2023-05-10T00:25:23;95463.66;;;8.96;100.00
20119;BME280;10220;42.716;23.306;2023-05-10T00:27:48;95463.72;;;9.02;100.00
20119;BME280;10220;42.716;23.306;2023-05-10T00:30:14;95474.84;;;9.03;100.00
20119;BME280;10220;42.716;23.306;2023-05-10T00:32:40;95472.88;;;9.05;100.00
20119;BME280;10220;42.716;23.306;2023-05-10T00:35:05;95469.88;;;9.01;100.00
20119;BME280;10220;42.716;23.306;2023-05-10T00:37:31;95471.47;;;9.02;100.00
20119;BME280;10220;42.716;23.306;2023-05-10T00:39:56;95473.69;;;9.05;100.00
20119;BME280;10220;42.716;23.306;2023-05-10T00:42:24;95471.06;;;8.99;100.00
20119;BME280;10220;42.716;23.306;2023-05-10T00:44:50;95448.84;;;8.83;100.00
20119;BME280;10220;42.716;23.306;2023-05-10T00:47:16;95463.13;;;8.79;100.00
20119;BME280;10220;42.716;23.306;2023-05-10T00:49:42;95436.78;;;8.70;100.00
20119;BME280;10220;42.716;23.306;2023-05-10T00:52:08;95471.78;;;8.93;100.00
20119;BME280;10220;42.716;23.306;2023-05-10T00:54:34;95447.94;;;8.91;100.00
20119;BME280;10220;42.716;23.306;2023-05-10T00:56:59;95458.91;;;8.99;100.00
20119;BME280;10220;42.716;23.306;2023-05-10T00:59:25;95443.44;;;8.78;100.00
20119;BME280;10220;42.716;23.306;2023-05-10T01:01:50;95471.91;;;8.85;100.00
20119;BME280;10220;42.716;23.306;2023-05-10T01:04:17;95465.00;;;8.92;100.00
20119;BME280;10220;42.716;23.306;2023-05-10T01:06:42;95437.75;;;8.62;100.00
20119;BME280;10220;42.716;23.306;2023-05-10T01:09:08;95463.72;;;8.81;100.00
20119;BME280;10220;42.716;23.306;2023-05-10T01:11:35;95472.69;;;8.85;100.00
20119;BME280;10220;42.716;23.306;2023-05-10T01:14:01;95440.84;;;8.78;100.00
20119;BME280;10220;42.716;23.306;2023-05-10T01:16:33;95438.09;;;8.80;100.00
20119;BME280;10220;42.716;23.306;2023-05-10T01:19:10;95456.78;;;8.82;100.00
20119;BME280;10220;42.716;23.306;2023-05-10T01:27:35;95442.91;;;8.83;100.00
20119;BME280;10220;42.716;23.306;2023-05-10T01:35:43;95451.56;;;8.76;100.00
20119;BME280;10220;42.716;23.306;2023-05-10T01:41:16;95432.13;;;8.79;100.00
20119;BME280;10220;42.716;23.306;2023-05-10T01:46:33;95416.25;;;8.62;100.00
20119;BME280;10220;42.716;23.306;2023-05-10T01:49:01;95439.03;;;8.73;100.00
20119;BME280;10220;42.716;23.306;2023-05-10T01:51:33;95437.41;;;8.72;100.00
20119;BME280;10220;42.716;23.306;2023-05-10T01:54:02;95430.53;;;8.78;100.00
20119;BME280;10220;42.716;23.306;2023-05-10T01:56:33;95442.72;;;8.84;100.00
20119;BME280;10220;42.716;23.306;2023-05-10T01:59:06;95442.59;;;8.72;100.00
20119;BME280;10220;42.716;23.306;2023-05-10T02:01:35;95433.47;;;8.76;100.00
20119;BME280;10220;42.716;23.306;2023-05-10T02:04:02;95433.91;;;8.79;100.00
20119;BME280;10220;42.716;23.306;2023-05-10T02:06:28;95445.53;;;8.89;100.00
20119;BME280;10220;42.716;23.306;2023-05-10T02:08:55;95448.78;;;8.98;100.00
20119;BME280;10220;42.716;23.306;2023-05-10T02:11:21;95433.91;;;8.79;100.00
20119;BME280;10220;42.716;23.306;2023-05-10T02:13:50;95441.88;;;8.84;100.00
20119;BME280;10220;42.716;23.306;2023-05-10T02:16:16;95438.00;;;8.94;100.00
20119;BME280;10220;42.716;23.306;2023-05-10T02:18:43;95439.69;;;8.81;100.00
20119;BME280;10220;42.716;23.306;2023-05-10T02:21:10;95451.56;;;8.76;100.00
20119;BME280;10220;42.716;23.306;2023-05-10T02:23:36;95447.81;;;8.78;100.00
20119;BME280;10220;42.716;23.306;2023-05-10T02:26:03;95451.38;;;8.77;100.00
20119;BME280;10220;42.716;23.306;2023-05-10T02:28:32;95445.72;;;8.67;100.00
20119;BME280;10220;42.716;23.306;2023-05-10T02:30:58;95435.38;;;8.67;100.00
20119;BME280;10220;42.716;23.306;2023-05-10T02:33:24;95413.50;;;8.42;100.00
20119;BME280;10220;42.716;23.306;2023-05-10T02:35:50;95446.34;;;8.69;100.00
20119;BME280;10220;42.716;23.306;2023-05-10T02:38:18;95455.31;;;8.73;100.00
20119;BME280;10220;42.716;23.306;2023-05-10T02:40:44;95445.03;;;8.59;100.00
20119;BME280;10220;42.716;23.306;2023-05-10T02:43:12;95446.53;;;8.68;100.00
20119;BME280;10220;42.716;23.306;2023-05-10T02:45:40;95449.88;;;8.68;100.00
20119;BME280;10220;42.716;23.306;2023-05-10T02:48:06;95448.00;;;8.56;100.00
20119;BME280;10220;42.716;23.306;2023-05-10T02:50:33;95435.44;;;8.53;100.00
20119;BME280;10220;42.716;23.306;2023-05-10T02:53:08;95442.22;;;8.54;100.00
20119;BME280;10220;42.716;23.306;2023-05-10T02:55:40;95444.53;;;8.49;100.00
20119;BME280;10220;42.716;23.306;2023-05-10T02:58:07;95450.56;;;8.20;100.00
20119;BME280;10220;42.716;23.306;2023-05-10T03:00:32;95452.44;;;8.12;100.00
20119;BME280;10220;42.716;23.306;2023-05-10T03:03:00;95449.19;;;8.18;100.00
20119;BME280;10220;42.716;23.306;2023-05-10T03:05:26;95462.69;;;8.20;100.00
20119;BME280;10220;42.716;23.306;2023-05-10T03:07:52;95459.00;;;8.29;100.00
20119;BME280;10220;42.716;23.306;2023-05-10T03:10:18;95469.59;;;8.34;100.00
20119;BME280;10220;42.716;23.306;2023-05-10T03:15:48;95462.81;;;8.33;100.00
20119;BME280;10220;42.716;23.306;2023-05-10T03:18:30;95467.66;;;8.21;100.00
20119;BME280;10220;42.716;23.306;2023-05-10T03:21:03;95473.63;;;8.22;100.00
20119;BME280;10220;42.716;23.306;2023-05-10T03:23:38;95477.19;;;8.21;100.00
20119;BME280;10220;42.716;23.306;2023-05-10T03:26:05;95455.66;;;8.14;100.00
20119;BME280;10220;42.716;23.306;2023-05-10T03:28:34;95477.00;;;8.22;100.00
20119;BME280;10220;42.716;23.306;2023-05-10T03:30:59;95477.38;;;8.05;100.00
20119;BME280;10220;42.716;23.306;2023-05-10T03:33:25;95439.50;;;7.77;100.00
20119;BME280;10220;42.716;23.306;2023-05-10T03:35:54;95470.22;;;8.07;100.00
20119;BME280;10220;42.716;23.306;2023-05-10T03:38:22;95468.19;;;8.03;100.00
20119;BME280;10220;42.716;23.306;2023-05-10T03:40:47;95483.69;;;8.03;100.00
20119;BME280;10220;42.716;23.306;2023-05-10T03:43:13;95485.69;;;8.07;100.00
20119;BME280;10220;42.716;23.306;2023-05-10T03:45:38;95488.09;;;8.09;100.00
20119;BME280;10220;42.716;23.306;2023-05-10T03:48:04;95473.38;;;7.88;100.00
20119;BME280;10220;42.716;23.306;2023-05-10T03:50:29;95470.06;;;7.94;100.00
20119;BME280;10220;42.716;23.306;2023-05-10T03:52:55;95482.16;;;7.94;100.00
20119;BME280;10220;42.716;23.306;2023-05-10T03:55:20;95485.03;;;8.13;100.00
20119;BME280;10220;42.716;23.306;2023-05-10T03:57:46;95492.59;;;8.15;100.00
20119;BME280;10220;42.716;23.306;2023-05-10T04:00:11;95487.59;;;8.13;100.00
20119;BME280;10220;42.716;23.306;2023-05-10T04:02:37;95485.34;;;7.96;100.00
20119;BME280;10220;42.716;23.306;2023-05-10T04:05:03;95492.47;;;8.08;100.00
20119;BME280;10220;42.716;23.306;2023-05-10T04:07:28;95492.31;;;7.95;100.00
20119;BME280;10220;42.716;23.306;2023-05-10T04:09:54;95502.34;;;8.05;100.00
20119;BME280;10220;42.716;23.306;2023-05-10T04:12:19;95501.66;;;7.96;100.00
20119;BME280;10220;42.716;23.306;2023-05-10T04:14:45;95507.69;;;7.89;100.00
20119;BME280;10220;42.716;23.306;2023-05-10T04:17:10;95495.66;;;7.96;100.00
20119;BME280;10220;42.716;23.306;2023-05-10T04:19:36;95495.59;;;7.75;100.00
20119;BME280;10220;42.716;23.306;2023-05-10T04:22:02;95497.09;;;7.84;100.00
20119;BME280;10220;42.716;23.306;2023-05-10T04:24:27;95492.13;;;7.82;100.00
20119;BME280;10220;42.716;23.306;2023-05-10T04:26:54;95504.22;;;7.96;100.00
20119;BME280;10220;42.716;23.306;2023-05-10T04:29:20;95509.00;;;7.99;100.00
20119;BME280;10220;42.716;23.306;2023-05-10T04:31:45;95505.97;;;7.96;100.00
20119;BME280;10220;42.716;23.306;2023-05-10T04:34:14;95514.78;;;7.87;100.00
20119;BME280;10220;42.716;23.306;2023-05-10T04:36:39;95510.25;;;7.89;100.00
20119;BME280;10220;42.716;23.306;2023-05-10T04:39:04;95500.13;;;7.87;100.00
20119;BME280;10220;42.716;23.306;2023-05-10T04:41:34;95506.00;;;7.81;100.00
20119;BME280;10220;42.716;23.306;2023-05-10T04:44:00;95509.56;;;7.80;100.00
20119;BME280;10220;42.716;23.306;2023-05-10T04:46:25;95507.69;;;7.74;100.00
20119;BME280;10220;42.716;23.306;2023-05-10T04:48:51;95512.38;;;7.71;100.00
20119;BME280;10220;42.716;23.306;2023-05-10T04:51:16;95499.69;;;7.69;100.00
20119;BME280;10220;42.716;23.306;2023-05-10T04:53:41;95510.16;;;7.68;100.00
20119;BME280;10220;42.716;23.306;2023-05-10T04:56:07;95508.56;;;7.67;100.00
20119;BME280;10220;42.716;23.306;2023-05-10T04:58:32;95503.78;;;7.64;100.00
20119;BME280;10220;42.716;23.306;2023-05-10T05:01:05;95487.16;;;7.52;100.00
20119;BME280;10220;42.716;23.306;2023-05-10T05:03:31;95497.00;;;7.63;100.00
20119;BME280;10220;42.716;23.306;2023-05-10T05:05:56;95505.47;;;7.71;100.00
20119;BME280;10220;42.716;23.306;2023-05-10T05:08:22;95501.38;;;7.62;100.00
20119;BME280;10220;42.716;23.306;2023-05-10T05:10:49;95509.81;;;7.71;100.00
20119;BME280;10220;42.716;23.306;2023-05-10T05:13:18;95496.50;;;7.67;100.00
20119;BME280;10220;42.716;23.306;2023-05-10T05:15:43;95518.34;;;7.71;100.00
20119;BME280;10220;42.716;23.306;2023-05-10T05:18:09;95503.59;;;7.80;100.00
20119;BME280;10220;42.716;23.306;2023-05-10T05:20:36;95513.28;;;7.78;100.00
20119;BME280;10220;42.716;23.306;2023-05-10T05:23:02;95507.78;;;7.81;100.00
20119;BME280;10220;42.716;23.306;2023-05-10T05:25:27;95510.72;;;7.78;100.00
20119;BME280;10220;42.716;23.306;2023-05-10T05:27:53;95509.91;;;7.77;100.00
20119;BME280;10220;42.716;23.306;2023-05-10T05:30:22;95502.81;;;7.79;100.00
20119;BME280;10220;42.716;23.306;2023-05-10T05:32:49;95511.78;;;7.83;100.00
20119;BME280;10220;42.716;23.306;2023-05-10T05:35:15;95507.41;;;7.69;100.00
20119;BME280;10220;42.716;23.306;2023-05-10T05:37:41;95521.91;;;7.85;100.00
20119;BME280;10220;42.716;23.306;2023-05-10T05:40:07;95509.13;;;7.77;100.00
20119;BME280;10220;42.716;23.306;2023-05-10T05:42:32;95519.44;;;7.77;100.00
20119;BME280;10220;42.716;23.306;2023-05-10T05:44:58;95518.53;;;7.84;100.00
20119;BME280;10220;42.716;23.306;2023-05-10T05:47:24;95520.94;;;7.86;100.00
20119;BME280;10220;42.716;23.306;2023-05-10T05:49:49;95528.41;;;7.95;100.00
20119;BME280;10220;42.716;23.306;2023-05-10T05:52:15;95505.47;;;7.86;100.00
20119;BME280;10220;42.716;23.306;2023-05-10T05:54:40;95499.25;;;7.80;100.00
20119;BME280;10220;42.716;23.306;2023-05-10T05:57:09;95537.13;;;7.94;100.00
20119;BME280;10220;42.716;23.306;2023-05-10T05:59:34;95534.09;;;8.05;100.00
20119;BME280;10220;42.716;23.306;2023-05-10T06:02:00;95531.53;;;8.05;100.00
20119;BME280;10220;42.716;23.306;2023-05-10T06:04:25;95522.19;;;7.90;100.00
20119;BME280;10220;42.716;23.306;2023-05-10T06:06:53;95509.56;;;7.95;100.00
20119;BME280;10220;42.716;23.306;2023-05-10T06:09:21;95538.91;;;8.08;100.00
20119;BME280;10220;42.716;23.306;2023-05-10T06:11:48;95544.19;;;8.15;100.00
20119;BME280;10220;42.716;23.306;2023-05-10T06:14:14;95541.84;;;8.05;100.00
20119;BME280;10220;42.716;23.306;2023-05-10T06:16:39;95544.34;;;7.99;100.00
20119;BME280;10220;42.716;23.306;2023-05-10T06:19:06;95536.59;;;7.99;100.00
20119;BME280;10220;42.716;23.306;2023-05-10T06:21:31;95516.13;;;7.83;100.00
20119;BME280;10220;42.716;23.306;2023-05-10T06:23:57;95545.50;;;7.96;100.00
20119;BME280;10220;42.716;23.306;2023-05-10T06:26:22;95537.56;;;7.98;100.00
20119;BME280;10220;42.716;23.306;2023-05-10T06:28:47;95555.63;;;7.98;100.00
20119;BME280;10220;42.716;23.306;2023-05-10T06:31:13;95555.63;;;7.98;100.00
20119;BME280;10220;42.716;23.306;2023-05-10T06:33:38;95539.69;;;7.94;100.00
20119;BME280;10220;42.716;23.306;2023-05-10T06:36:04;95543.19;;;8.01;100.00
20119;BME280;10220;42.716;23.306;2023-05-10T06:38:29;95519.53;;;7.98;100.00
20119;BME280;10220;42.716;23.306;2023-05-10T06:40:55;95544.84;;;8.09;100.00
20119;BME280;10220;42.716;23.306;2023-05-10T06:43:20;95542.56;;;8.14;100.00
20119;BME280;10220;42.716;23.306;2023-05-10T06:45:47;95549.44;;;8.21;100.00
20119;BME280;10220;42.716;23.306;2023-05-10T06:48:13;95550.47;;;8.26;100.00
20119;BME280;10220;42.716;23.306;2023-05-10T06:50:38;95556.25;;;8.43;100.00
20119;BME280;10220;42.716;23.306;2023-05-10T06:53:03;95542.00;;;8.47;100.00
20119;BME280;10220;42.716;23.306;2023-05-10T06:55:29;95543.84;;;8.53;100.00
20119;BME280;10220;42.716;23.306;2023-05-10T06:57:54;95563.53;;;8.54;100.00
20119;BME280;10220;42.716;23.306;2023-05-10T07:00:20;95568.97;;;8.59;100.00
20119;BME280;10220;42.716;23.306;2023-05-10T07:02:46;95547.41;;;8.52;100.00
20119;BME280;10220;42.716;23.306;2023-05-10T07:05:12;95531.91;;;8.52;100.00
20119;BME280;10220;42.716;23.306;2023-05-10T07:07:38;95547.56;;;8.65;100.00
20119;BME280;10220;42.716;23.306;2023-05-10T07:10:03;95557.03;;;8.58;100.00
20119;BME280;10220;42.716;23.306;2023-05-10T07:12:29;95544.81;;;8.52;100.00
20119;BME280;10220;42.716;23.306;2023-05-10T07:14:54;95561.28;;;8.65;100.00
20119;BME280;10220;42.716;23.306;2023-05-10T07:17:20;95569.38;;;8.77;100.00
20119;BME280;10220;42.716;23.306;2023-05-10T07:19:46;95569.19;;;8.78;100.00
20119;BME280;10220;42.716;23.306;2023-05-10T07:22:11;95554.94;;;8.82;100.00
20119;BME280;10220;42.716;23.306;2023-05-10T07:24:37;95577.44;;;8.88;100.00
20119;BME280;10220;42.716;23.306;2023-05-10T07:27:02;95566.34;;;8.73;100.00
20119;BME280;10220;42.716;23.306;2023-05-10T07:29:27;95563.13;;;8.71;100.00
20119;BME280;10220;42.716;23.306;2023-05-10T07:31:53;95557.00;;;8.72;100.00
20119;BME280;10220;42.716;23.306;2023-05-10T07:34:21;95562.53;;;8.69;100.00
20119;BME280;10220;42.716;23.306;2023-05-10T07:37:00;95562.44;;;8.98;100.00
20119;BME280;10220;42.716;23.306;2023-05-10T07:39:27;95572.22;;;9.02;100.00
20119;BME280;10220;42.716;23.306;2023-05-10T07:41:52;95548.28;;;8.94;100.00
20119;BME280;10220;42.716;23.306;2023-05-10T07:44:18;95571.06;;;9.26;100.00
20119;BME280;10220;42.716;23.306;2023-05-10T07:46:45;95565.88;;;9.26;100.00
20119;BME280;10220;42.716;23.306;2023-05-10T07:49:11;95535.44;;;9.00;100.00
20119;BME280;10220;42.716;23.306;2023-05-10T07:51:36;95558.06;;;9.19;100.00
20119;BME280;10220;42.716;23.306;2023-05-10T07:54:02;95560.06;;;9.17;100.00
20119;BME280;10220;42.716;23.306;2023-05-10T07:56:29;95566.47;;;9.21;100.00
20119;BME280;10220;42.716;23.306;2023-05-10T07:58:56;95552.81;;;9.27;100.00
20119;BME280;10220;42.716;23.306;2023-05-10T08:01:22;95591.56;;;9.48;100.00
20119;BME280;10220;42.716;23.306;2023-05-10T08:03:48;95593.16;;;9.28;100.00
20119;BME280;10220;42.716;23.306;2023-05-10T08:06:15;95583.91;;;9.40;100.00
20119;BME280;10220;42.716;23.306;2023-05-10T08:08:41;95598.31;;;9.49;100.00
20119;BME280;10220;42.716;23.306;2023-05-10T08:11:06;95593.41;;;9.54;100.00
20119;BME280;10220;42.716;23.306;2023-05-10T08:13:32;95589.47;;;9.58;100.00
20119;BME280;10220;42.716;23.306;2023-05-10T08:15:58;95576.97;;;9.61;100.00
20119;BME280;10220;42.716;23.306;2023-05-10T08:18:23;95580.97;;;9.64;100.00
20119;BME280;10220;42.716;23.306;2023-05-10T08:20:48;95586.41;;;9.48;100.00
20119;BME280;10220;42.716;23.306;2023-05-10T08:23:14;95556.38;;;9.26;100.00
20119;BME280;10220;42.716;23.306;2023-05-10T08:25:39;95568.31;;;9.27;100.00
20119;BME280;10220;42.716;23.306;2023-05-10T08:28:05;95568.97;;;9.35;100.00
20119;BME280;10220;42.716;23.306;2023-05-10T08:30:30;95574.78;;;9.17;100.00
20119;BME280;10220;42.716;23.306;2023-05-10T08:32:56;95578.75;;;9.19;100.00
20119;BME280;10220;42.716;23.306;2023-05-10T08:35:21;95575.44;;;9.25;100.00
20119;BME280;10220;42.716;23.306;2023-05-10T08:37:46;95577.91;;;9.33;100.00
20119;BME280;10220;42.716;23.306;2023-05-10T08:40:12;95556.31;;;9.20;100.00
20119;BME280;10220;42.716;23.306;2023-05-10T08:42:40;95575.63;;;9.24;100.00
20119;BME280;10220;42.716;23.306;2023-05-10T08:45:09;95593.97;;;9.29;100.00
20119;BME280;10220;42.716;23.306;2023-05-10T08:47:37;95592.81;;;9.31;100.00
20119;BME280;10220;42.716;23.306;2023-05-10T08:50:03;95580.59;;;9.25;100.00
20119;BME280;10220;42.716;23.306;2023-05-10T08:52:30;95585.16;;;9.23;100.00
20119;BME280;10220;42.716;23.306;2023-05-10T08:54:58;95559.94;;;9.04;100.00
20119;BME280;10220;42.716;23.306;2023-05-10T08:57:23;95591.50;;;9.41;100.00
20119;BME280;10220;42.716;23.306;2023-05-10T08:59:49;95572.19;;;9.37;100.00
20119;BME280;10220;42.716;23.306;2023-05-10T09:02:14;95580.41;;;9.47;100.00
20119;BME280;10220;42.716;23.306;2023-05-10T09:04:41;95577.03;;;9.47;100.00
20119;BME280;10220;42.716;23.306;2023-05-10T09:07:07;95563.22;;;9.61;100.00
20119;BME280;10220;42.716;23.306;2023-05-10T09:09:33;95589.94;;;9.68;100.00
20119;BME280;10220;42.716;23.306;2023-05-10T09:11:58;95580.34;;;9.62;100.00
20119;BME280;10220;42.716;23.306;2023-05-10T09:14:25;95573.13;;;9.78;100.00
20119;BME280;10220;42.716;23.306;2023-05-10T09:16:50;95560.69;;;9.67;100.00
20119;BME280;10220;42.716;23.306;2023-05-10T09:19:17;95582.63;;;9.71;100.00
20119;BME280;10220;42.716;23.306;2023-05-10T09:21:43;95571.19;;;9.87;100.00
20119;BME280;10220;42.716;23.306;2023-05-10T09:24:08;95579.84;;;9.73;100.00
20119;BME280;10220;42.716;23.306;2023-05-10T09:26:35;95597.03;;;9.87;100.00
20119;BME280;10220;42.716;23.306;2023-05-10T09:29:01;95586.50;;;9.88;100.00
20119;BME280;10220;42.716;23.306;2023-05-10T09:31:47;95577.03;;;9.95;100.00
20119;BME280;10220;42.716;23.306;2023-05-10T09:34:28;95584.63;;;9.76;100.00
20119;BME280;10220;42.716;23.306;2023-05-10T09:36:55;95567.91;;;9.72;100.00
20119;BME280;10220;42.716;23.306;2023-05-10T09:39:30;95576.59;;;9.64;100.00
20119;BME280;10220;42.716;23.306;2023-05-10T09:41:56;95579.28;;;9.77;100.00
20119;BME280;10220;42.716;23.306;2023-05-10T09:44:21;95573.16;;;9.85;100.00
20119;BME280;10220;42.716;23.306;2023-05-10T09:46:50;95574.94;;;9.84;100.00
20119;BME280;10220;42.716;23.306;2023-05-10T09:49:18;95558.91;;;9.68;100.00
20119;BME280;10220;42.716;23.306;2023-05-10T09:51:43;95546.81;;;9.75;100.00
20119;BME280;10220;42.716;23.306;2023-05-10T09:54:11;95557.78;;;9.77;100.00
20119;BME280;10220;42.716;23.306;2023-05-10T09:56:37;95551.44;;;9.79;100.00
20119;BME280;10220;42.716;23.306;2023-05-10T09:59:06;95569.94;;;10.03;100.00
20119;BME280;10220;42.716;23.306;2023-05-10T10:01:32;95564.63;;;10.18;100.00
20119;BME280;10220;42.716;23.306;2023-05-10T10:03:58;95577.66;;;10.31;100.00
20119;BME280;10220;42.716;23.306;2023-05-10T10:06:24;95543.47;;;10.42;100.00
20119;BME280;10220;42.716;23.306;2023-05-10T10:08:50;95568.88;;;10.65;100.00
20119;BME280;10220;42.716;23.306;2023-05-10T10:11:16;95523.94;;;10.39;100.00
20119;BME280;10220;42.716;23.306;2023-05-10T10:13:42;95562.44;;;10.49;100.00
20119;BME280;10220;42.716;23.306;2023-05-10T10:16:08;95561.88;;;10.53;100.00
20119;BME280;10220;42.716;23.306;2023-05-10T10:18:35;95557.00;;;10.44;100.00
20119;BME280;10220;42.716;23.306;2023-05-10T10:21:07;95557.44;;;10.47;100.00
20119;BME280;10220;42.716;23.306;2023-05-10T10:23:35;95555.16;;;10.71;100.00
20119;BME280;10220;42.716;23.306;2023-05-10T10:26:04;95539.59;;;10.65;100.00
20119;BME280;10220;42.716;23.306;2023-05-10T10:34:10;95533.84;;;10.76;100.00
20119;BME280;10220;42.716;23.306;2023-05-10T10:36:47;95545.75;;;10.64;100.00
20119;BME280;10220;42.716;23.306;2023-05-10T10:39:14;95552.81;;;10.89;100.00
20119;BME280;10220;42.716;23.306;2023-05-10T10:41:51;95552.97;;;10.81;100.00
20119;BME280;10220;42.716;23.306;2023-05-10T10:49:50;95552.28;;;11.07;100.00
20119;BME280;10220;42.716;23.306;2023-05-10T10:52:26;95558.41;;;10.93;100.00
20119;BME280;10220;42.716;23.306;2023-05-10T10:55:19;95556.41;;;10.88;100.00
20119;BME280;10220;42.716;23.306;2023-05-10T10:57:52;95538.38;;;10.61;100.00
20119;BME280;10220;42.716;23.306;2023-05-10T11:00:49;95553.28;;;10.52;100.00
20119;BME280;10220;42.716;23.306;2023-05-10T11:03:15;95545.97;;;10.62;100.00
20119;BME280;10220;42.716;23.306;2023-05-10T11:11:02;95548.69;;;11.14;100.00
20119;BME280;10220;42.716;23.306;2023-05-10T11:13:46;95551.47;;;11.12;100.00
20119;BME280;10220;42.716;23.306;2023-05-10T11:19:12;95549.31;;;11.22;100.00
20119;BME280;10220;42.716;23.306;2023-05-10T11:24:29;95543.34;;;11.22;100.00
20119;BME280;10220;42.716;23.306;2023-05-10T11:26:55;95556.47;;;11.20;100.00
20119;BME280;10220;42.716;23.306;2023-05-10T11:29:21;95548.34;;;11.36;100.00
20119;BME280;10220;42.716;23.306;2023-05-10T11:31:49;95549.91;;;11.18;100.00
20119;BME280;10220;42.716;23.306;2023-05-10T11:34:31;95555.69;;;11.26;100.00
20119;BME280;10220;42.716;23.306;2023-05-10T11:36:59;95553.09;;;11.20;100.00
20119;BME280;10220;42.716;23.306;2023-05-10T11:39:31;95553.88;;;11.08;100.00
20119;BME280;10220;42.716;23.306;2023-05-10T11:41:58;95547.31;;;11.31;100.00
20119;BME280;10220;42.716;23.306;2023-05-10T11:44:33;95557.13;;;11.42;100.00
20119;BME280;10220;42.716;23.306;2023-05-10T11:47:01;95563.09;;;11.36;100.00
20119;BME280;10220;42.716;23.306;2023-05-10T11:49:27;95546.09;;;11.27;100.00
20119;BME280;10220;42.716;23.306;2023-05-10T11:51:52;95519.56;;;11.12;100.00
20119;BME280;10220;42.716;23.306;2023-05-10T11:54:18;95536.16;;;11.30;100.00
20119;BME280;10220;42.716;23.306;2023-05-10T11:56:43;95533.28;;;11.00;100.00
20119;BME280;10220;42.716;23.306;2023-05-10T11:59:10;95541.34;;;11.30;100.00
20119;BME280;10220;42.716;23.306;2023-05-10T12:01:35;95534.75;;;11.41;100.00
20119;BME280;10220;42.716;23.306;2023-05-10T12:04:01;95546.94;;;11.27;100.00
20119;BME280;10220;42.716;23.306;2023-05-10T12:06:32;95545.53;;;11.25;100.00
20119;BME280;10220;42.716;23.306;2023-05-10T12:09:06;95545.75;;;11.36;100.00
20119;BME280;10220;42.716;23.306;2023-05-10T12:11:36;95540.75;;;11.28;100.00
20119;BME280;10220;42.716;23.306;2023-05-10T12:14:04;95518.41;;;11.21;100.00
20119;BME280;10220;42.716;23.306;2023-05-10T12:16:29;95537.31;;;11.15;100.00
20119;BME280;10220;42.716;23.306;2023-05-10T12:18:57;95530.53;;;11.20;100.00
20119;BME280;10220;42.716;23.306;2023-05-10T12:21:23;95543.16;;;11.36;100.00
20119;BME280;10220;42.716;23.306;2023-05-10T12:23:54;95539.53;;;11.31;100.00
20119;BME280;10220;42.716;23.306;2023-05-10T12:26:24;95533.75;;;11.35;100.00
20119;BME280;10220;42.716;23.306;2023-05-10T12:28:52;95536.16;;;11.37;100.00
20119;BME280;10220;42.716;23.306;2023-05-10T12:31:18;95517.56;;;11.20;100.00
20119;BME280;10220;42.716;23.306;2023-05-10T12:33:44;95524.78;;;11.38;100.00
20119;BME280;10220;42.716;23.306;2023-05-10T12:36:12;95526.94;;;11.15;100.00
20119;BME280;10220;42.716;23.306;2023-05-10T12:38:39;95519.19;;;11.28;100.00
20119;BME280;10220;42.716;23.306;2023-05-10T12:41:12;95525.78;;;11.30;100.00
20119;BME280;10220;42.716;23.306;2023-05-10T12:43:38;95524.38;;;11.34;100.00
20119;BME280;10220;42.716;23.306;2023-05-10T12:46:24;95504.25;;;11.43;100.00
20119;BME280;10220;42.716;23.306;2023-05-10T12:48:52;95525.56;;;11.38;100.00
20119;BME280;10220;42.716;23.306;2023-05-10T12:51:20;95499.44;;;11.33;100.00
20119;BME280;10220;42.716;23.306;2023-05-10T12:53:47;95511.19;;;11.10;100.00
20119;BME280;10220;42.716;23.306;2023-05-10T12:56:13;95487.84;;;11.16;100.00
20119;BME280;10220;42.716;23.306;2023-05-10T12:58:38;95504.25;;;11.30;100.00
20119;BME280;10220;42.716;23.306;2023-05-10T13:01:04;95495.06;;;11.27;100.00
20119;BME280;10220;42.716;23.306;2023-05-10T13:03:30;95504.63;;;11.46;100.00
20119;BME280;10220;42.716;23.306;2023-05-10T13:05:55;95495.66;;;11.42;100.00
20119;BME280;10220;42.716;23.306;2023-05-10T13:08:21;95502.88;;;11.66;100.00
20119;BME280;10220;42.716;23.306;2023-05-10T13:10:46;95477.50;;;11.36;100.00
20119;BME280;10220;42.716;23.306;2023-05-10T13:13:12;95493.09;;;11.62;100.00
20119;BME280;10220;42.716;23.306;2023-05-10T13:15:37;95487.09;;;11.68;100.00
20119;BME280;10220;42.716;23.306;2023-05-10T13:18:03;95492.69;;;11.58;100.00
20119;BME280;10220;42.716;23.306;2023-05-10T13:20:28;95478.91;;;11.71;100.00
20119;BME280;10220;42.716;23.306;2023-05-10T13:22:54;95459.34;;;11.49;100.00
20119;BME280;10220;42.716;23.306;2023-05-10T13:25:19;95486.66;;;11.45;100.00
20119;BME280;10220;42.716;23.306;2023-05-10T13:27:45;95471.91;;;11.19;100.00
20119;BME280;10220;42.716;23.306;2023-05-10T13:30:10;95480.91;;;11.36;100.00